クグルクトゥク の空港の天気 - METARとTAF

Coppermine ( CYCO / YCO ) - カナダ ヌナブト準州Kugluktuk
飛行場実況気象(Metar)
観測時間10/15 11:00 MDT (10/15 17:00 UTC)
風向・風速南南西 3m/s
視程10km以上
天気現象
少しの雲 雲底高度 300m
全天の4割程度の雲 雲底高度 2870m
全天の8割程度の雲 雲底高度 9140m
気温-7℃
湿度86%
気圧1022.8hPa
METARCYCO 151700Z 21005KT 15SM FEW010 SCT094 BKN300 M07/M09 A3019 RMK SF1AC3CI2 SF TR SLP228
過去の天気等 Google飛行場航空写真 Wunderground天気予報

過去48時間のMETAR

飛行場予報(TAF)
発表時間: 10/15 00:38 MDT (10/15 06:38 UTC)
予報対象時間: 15日1時 MDT ~ 15日13時 MDT
風向・風速不定 2m/s
視程10km以上
全天の4割程度の雲 雲底高度 610m
全天の4割程度の雲 雲底高度 1220m
全天の8割程度の雲 雲底高度 3050m
15日1時 MDT ~ 15日3時 MDT に一時的に
視程10km以上
天気現象弱い雪
全天の8割程度の雲 雲底高度 610m
全天を覆う雲 雲底高度 1220m
15日1時 MDT ~ 15日3時 MDT に徐々に
風向・風速南西 3m/s
15日3時 MDT から
風向・風速南西 3m/s
視程10km以上
全天の4割程度の雲 雲底高度 370m
全天を覆う雲 雲底高度 910m
15日3時 MDT ~ 15日13時 MDT に一時的に
視程6440m
天気現象弱い雪 もや
全天を覆う雲 雲底高度 370m
15日10時 MDT ~ 15日12時 MDT に徐々に
風向・風速不定 2m/s
TAF CYCO 150638Z 1507/1519 VRB03KT P6SM SCT020 SCT040 BKN100
TEMPO 1507/1509 P6SM -SN BKN020 OVC040
BECMG 1507/1509 22006KT
FM150900 22006KT P6SM SCT012 OVC030
TEMPO 1509/1519 4SM -SN BR OVC012
BECMG 1516/1518 VRB03KT RMK NXT FCST BY 151300Z